Time;durP1;ratioP1;P1;durP2;ratioP2;P2;SDS_P1;SDS_P2;PMS_P1;PMS_P2;Temp;Humidity;BMP_temperature;BMP_pressure;BME280_temperature;BME280_humidity;BME280_pressure;Samples;Min_cycle;Max_cycle;Signal;HPM_P1;HPM_P2
2023/10/27 00:00:58;;;;;;;3.73;2.60;;;10.60;99.90;;;;;;4939982;29;20437;-73
2023/10/27 00:03:24;;;;;;;4.10;2.30;;;10.60;99.90;;;;;;4923491;29;20422;-74
2023/10/27 00:05:49;;;;;;;4.20;2.77;;;10.60;99.90;;;;;;4926303;29;20286;-73
2023/10/27 00:08:15;;;;;;;3.30;2.50;;;10.60;99.90;;;;;;4927343;29;20198;-74
2023/10/27 00:10:41;;;;;;;3.70;2.50;;;10.60;99.90;;;;;;4918004;29;20289;-73
2023/10/27 00:13:06;;;;;;;4.20;2.60;;;10.50;99.90;;;;;;4916553;29;20517;-74
2023/10/27 00:15:32;;;;;;;6.67;3.17;;;10.50;99.90;;;;;;4925199;29;20210;-75
2023/10/27 00:17:58;;;;;;;5.30;2.10;;;10.50;99.90;;;;;;4933351;29;20214;-74
2023/10/27 00:20:24;;;;;;;4.07;2.57;;;10.50;99.90;;;;;;4936647;29;20198;-74
2023/10/27 00:22:50;;;;;;;4.43;2.63;;;10.40;99.90;;;;;;4934078;29;20599;-74
2023/10/27 00:25:17;;;;;;;6.47;3.03;;;10.30;99.90;;;;;;4925016;29;20458;-74
2023/10/27 00:27:42;;;;;;;4.97;2.60;;;10.30;99.90;;;;;;4924885;29;20197;-73
2023/10/27 00:30:09;;;;;;;5.97;3.13;;;10.20;99.90;;;;;;4918953;29;20428;-74
2023/10/27 00:32:36;;;;;;;4.93;2.53;;;10.20;99.90;;;;;;4916057;29;20280;-74
2023/10/27 00:35:04;;;;;;;3.70;2.60;;;10.10;99.90;;;;;;4932697;29;20510;-76
2023/10/27 00:37:33;;;;;;;2.80;1.97;;;10.10;99.90;;;;;;4935422;29;20414;-74
2023/10/27 00:39:58;;;;;;;5.37;2.33;;;10.00;99.90;;;;;;4941623;29;20900;-73
2023/10/27 00:42:24;;;;;;;5.50;2.40;;;10.10;99.90;;;;;;4934841;29;20453;-73
2023/10/27 00:44:49;;;;;;;7.83;2.73;;;10.10;99.90;;;;;;4935934;29;20214;-73
2023/10/27 00:47:15;;;;;;;5.17;2.23;;;10.10;99.90;;;;;;4906640;29;20636;-74
2023/10/27 00:49:41;;;;;;;5.90;3.07;;;10.10;99.90;;;;;;4939522;29;20212;-74
2023/10/27 00:52:06;;;;;;;5.70;2.47;;;10.10;99.90;;;;;;4927079;29;20206;-75
2023/10/27 00:54:34;;;;;;;4.53;2.57;;;10.20;99.90;;;;;;4933259;29;20288;-74
2023/10/27 00:57:01;;;;;;;4.10;2.20;;;10.20;99.90;;;;;;4924214;29;20197;-74
2023/10/27 00:59:26;;;;;;;4.50;2.00;;;10.10;99.90;;;;;;4919757;29;20462;-74
2023/10/27 01:01:52;;;;;;;9.90;3.00;;;10.20;99.90;;;;;;4911056;29;20252;-73
2023/10/27 01:04:18;;;;;;;4.00;2.00;;;10.20;99.90;;;;;;4927188;29;20206;-74
2023/10/27 01:06:44;;;;;;;9.00;3.60;;;10.20;99.90;;;;;;4932438;29;20496;-74
2023/10/27 01:09:10;;;;;;;6.37;2.30;;;10.20;99.90;;;;;;4931613;29;20206;-75
2023/10/27 01:11:35;;;;;;;3.83;2.60;;;10.20;99.90;;;;;;4926023;29;20221;-73
2023/10/27 01:14:01;;;;;;;6.77;2.20;;;10.20;99.90;;;;;;4940638;29;20644;-73
2023/10/27 01:16:27;;;;;;;4.33;2.43;;;10.20;99.90;;;;;;4934306;29;20326;-73
2023/10/27 01:18:53;;;;;;;4.30;2.57;;;10.20;99.90;;;;;;4929659;29;20370;-72
2023/10/27 01:21:18;;;;;;;5.90;3.00;;;10.30;99.90;;;;;;4909413;29;20193;-73
2023/10/27 01:23:44;;;;;;;5.77;2.93;;;10.30;99.90;;;;;;4940462;29;20448;-74
2023/10/27 01:26:09;;;;;;;6.23;2.70;;;10.30;99.90;;;;;;4915947;29;20638;-74
2023/10/27 01:28:35;;;;;;;3.30;2.20;;;10.30;99.90;;;;;;4932788;29;20202;-74
2023/10/27 01:31:01;;;;;;;3.00;2.07;;;10.30;99.90;;;;;;4925609;29;20190;-73
2023/10/27 01:33:26;;;;;;;3.60;1.80;;;10.30;99.90;;;;;;4906696;29;20293;-74
2023/10/27 01:35:52;;;;;;;3.73;1.90;;;10.30;99.90;;;;;;4924587;29;20218;-74
2023/10/27 01:38:19;;;;;;;1.83;1.40;;;10.30;99.90;;;;;;4924974;29;20637;-75
2023/10/27 01:40:46;;;;;;;4.33;2.03;;;10.30;99.90;;;;;;4932396;29;20411;-75
2023/10/27 01:43:11;;;;;;;3.97;2.37;;;10.40;99.90;;;;;;4913196;29;20441;-74
2023/10/27 01:45:37;;;;;;;5.57;2.40;;;10.40;99.90;;;;;;4923701;29;20224;-73
2023/10/27 01:48:03;;;;;;;3.60;1.50;;;10.40;99.90;;;;;;4905008;29;20213;-73
2023/10/27 01:50:28;;;;;;;4.20;2.00;;;10.40;99.90;;;;;;4932322;29;20526;-75
2023/10/27 01:52:54;;;;;;;2.60;1.80;;;10.40;99.90;;;;;;4920676;29;20197;-74
2023/10/27 01:55:19;;;;;;;3.53;1.50;;;10.40;99.90;;;;;;4931171;29;20244;-73
2023/10/27 01:57:45;;;;;;;2.63;1.50;;;10.40;99.90;;;;;;4930421;29;20236;-73
2023/10/27 02:00:11;;;;;;;4.67;2.00;;;10.40;99.90;;;;;;4930532;29;20192;-74
2023/10/27 02:02:40;;;;;;;3.93;1.60;;;10.50;99.90;;;;;;4909563;29;20194;-73
2023/10/27 02:05:07;;;;;;;4.40;2.17;;;10.40;99.90;;;;;;4918795;29;20738;-74
2023/10/27 02:07:33;;;;;;;6.50;2.93;;;10.40;99.90;;;;;;4914505;29;20194;-73
2023/10/27 02:09:59;;;;;;;4.23;2.20;;;10.40;99.90;;;;;;4923140;29;20543;-74
2023/10/27 02:12:28;;;;;;;3.10;2.40;;;10.40;99.90;;;;;;4920042;29;20222;-74
2023/10/27 02:14:54;;;;;;;8.43;2.33;;;10.40;99.90;;;;;;4921644;29;20540;-73
2023/10/27 02:17:19;;;;;;;5.60;2.60;;;10.40;99.90;;;;;;4941257;29;20474;-73
2023/10/27 02:19:45;;;;;;;5.70;2.80;;;10.40;99.90;;;;;;4915547;29;20472;-74
2023/10/27 02:22:11;;;;;;;5.43;3.10;;;10.40;99.90;;;;;;4913682;29;20245;-74
2023/10/27 02:24:40;;;;;;;7.50;2.40;;;10.40;99.90;;;;;;4908382;29;20202;-73
2023/10/27 02:27:08;;;;;;;6.83;3.10;;;10.40;99.90;;;;;;4907130;29;20224;-72
2023/10/27 02:29:33;;;;;;;5.50;2.60;;;10.40;99.90;;;;;;4927932;29;20419;-74
2023/10/27 02:31:59;;;;;;;4.07;2.53;;;10.40;99.90;;;;;;4943027;29;20264;-74
2023/10/27 02:34:25;;;;;;;4.03;2.33;;;10.30;99.90;;;;;;4940774;29;20244;-75
2023/10/27 02:36:50;;;;;;;4.20;2.57;;;10.30;99.90;;;;;;4916820;29;20278;-74
2023/10/27 02:39:16;;;;;;;4.43;2.80;;;10.30;99.90;;;;;;4924625;29;20214;-73
2023/10/27 02:41:42;;;;;;;6.57;3.10;;;10.30;99.90;;;;;;4943926;29;20280;-74
2023/10/27 02:44:09;;;;;;;6.87;3.20;;;10.30;99.90;;;;;;4920193;29;20217;-74
2023/10/27 02:46:35;;;;;;;12.77;3.80;;;10.30;99.90;;;;;;4927457;29;20177;-74
2023/10/27 02:49:02;;;;;;;7.80;2.80;;;10.30;99.90;;;;;;4908141;29;20442;-73
2023/10/27 02:51:28;;;;;;;8.97;3.50;;;10.30;99.90;;;;;;4939867;29;20432;-75
2023/10/27 02:53:54;;;;;;;5.90;3.53;;;10.30;99.90;;;;;;4938380;29;20422;-75
2023/10/27 02:56:20;;;;;;;6.77;3.57;;;10.30;99.90;;;;;;4912183;29;20215;-74
2023/10/27 02:58:46;;;;;;;7.20;3.97;;;10.30;99.90;;;;;;4940853;29;20576;-74
2023/10/27 03:01:15;;;;;;;8.23;3.90;;;10.30;99.90;;;;;;4918586;29;20609;-75
2023/10/27 03:03:41;;;;;;;8.77;3.40;;;10.30;99.90;;;;;;4945902;29;20185;-74
2023/10/27 03:06:07;;;;;;;6.80;3.30;;;10.40;99.90;;;;;;4933540;29;20766;-74
2023/10/27 03:08:34;;;;;;;6.23;3.53;;;10.40;99.90;;;;;;4916401;29;20429;-74
2023/10/27 03:11:00;;;;;;;4.10;3.03;;;10.40;99.90;;;;;;4932525;29;20187;-73
2023/10/27 03:13:28;;;;;;;8.70;3.87;;;10.30;99.90;;;;;;4944540;29;20845;-74
2023/10/27 03:15:53;;;;;;;9.13;3.80;;;10.30;99.90;;;;;;4913732;29;20316;-73
2023/10/27 03:18:19;;;;;;;8.67;3.67;;;10.30;99.90;;;;;;4915551;29;20492;-74
2023/10/27 03:20:53;;;;;;;6.53;3.20;;;10.40;99.90;;;;;;4923879;29;20601;-74
2023/10/27 03:23:19;;;;;;;3.33;2.90;;;10.40;99.90;;;;;;4939297;29;20269;-75
2023/10/27 03:25:45;;;;;;;7.63;3.37;;;10.40;99.90;;;;;;4935174;29;20446;-74
2023/10/27 03:28:10;;;;;;;4.33;2.57;;;10.30;99.90;;;;;;4929818;29;20433;-75
2023/10/27 03:30:37;;;;;;;4.90;3.50;;;10.40;99.90;;;;;;4934078;29;20194;-75
2023/10/27 03:33:03;;;;;;;7.83;2.93;;;10.40;99.90;;;;;;4943216;29;20199;-72
2023/10/27 03:35:30;;;;;;;5.27;2.80;;;10.30;99.90;;;;;;4922523;29;20440;-75
2023/10/27 03:37:56;;;;;;;10.10;3.30;;;10.30;99.90;;;;;;4935782;29;20221;-75
2023/10/27 03:40:22;;;;;;;7.50;3.70;;;10.30;99.90;;;;;;4936304;29;20705;-74
2023/10/27 03:42:48;;;;;;;8.20;3.20;;;10.20;99.90;;;;;;4928167;29;20178;-73
2023/10/27 03:45:14;;;;;;;10.53;3.80;;;10.20;99.90;;;;;;4934439;29;20730;-75
2023/10/27 03:47:39;;;;;;;5.23;2.90;;;10.20;99.90;;;;;;4933714;29;20649;-75
2023/10/27 03:50:06;;;;;;;6.20;3.03;;;10.20;99.90;;;;;;4926418;29;20570;-74
2023/10/27 03:52:32;;;;;;;8.20;3.70;;;10.10;99.90;;;;;;4916556;29;20435;-73
2023/10/27 03:54:57;;;;;;;10.70;3.67;;;10.10;99.90;;;;;;4924866;29;20509;-74
2023/10/27 03:57:23;;;;;;;5.87;3.07;;;10.10;99.90;;;;;;4936151;29;20248;-74
2023/10/27 03:59:49;;;;;;;4.53;3.20;;;10.10;99.90;;;;;;4926239;29;20233;-75
2023/10/27 04:02:15;;;;;;;4.47;2.90;;;10.00;99.90;;;;;;4927541;29;20186;-75
2023/10/27 04:04:41;;;;;;;7.90;3.73;;;10.00;99.90;;;;;;4934059;29;20198;-73
2023/10/27 04:07:07;;;;;;;8.47;3.90;;;10.00;99.90;;;;;;4918244;29;20729;-73
2023/10/27 04:09:33;;;;;;;6.83;3.07;;;10.10;99.90;;;;;;4926535;29;20442;-74
2023/10/27 04:11:58;;;;;;;10.10;3.53;;;10.00;99.90;;;;;;4929150;29;20233;-74
2023/10/27 04:14:24;;;;;;;14.93;4.37;;;10.00;99.90;;;;;;4943990;29;20245;-72
2023/10/27 04:16:49;;;;;;;7.93;3.90;;;10.00;99.90;;;;;;4917351;29;20453;-74
2023/10/27 04:19:18;;;;;;;9.17;3.33;;;10.10;99.90;;;;;;4938089;29;20342;-75
2023/10/27 04:21:44;;;;;;;8.03;3.70;;;10.00;99.90;;;;;;4932703;29;20254;-73
2023/10/27 04:24:09;;;;;;;12.30;4.00;;;10.00;99.90;;;;;;4946099;29;20422;-75
2023/10/27 04:26:36;;;;;;;7.33;3.43;;;10.00;99.90;;;;;;4938057;29;20209;-75
2023/10/27 04:29:01;;;;;;;8.30;3.40;;;10.10;99.90;;;;;;4940548;29;20205;-74
2023/10/27 04:31:27;;;;;;;7.50;3.67;;;10.00;99.90;;;;;;4924921;29;20470;-74
2023/10/27 04:33:56;;;;;;;10.50;4.23;;;10.00;99.90;;;;;;4926601;29;20199;-75
2023/10/27 04:36:21;;;;;;;9.97;4.03;;;10.10;99.90;;;;;;4908455;29;20218;-74
2023/10/27 04:38:47;;;;;;;8.03;2.87;;;10.10;99.90;;;;;;4929500;29;20552;-73
2023/10/27 04:41:13;;;;;;;8.67;4.00;;;10.10;99.90;;;;;;4930746;29;20190;-74
2023/10/27 04:43:41;;;;;;;5.23;3.40;;;10.10;99.90;;;;;;4929928;29;20492;-75
2023/10/27 04:46:08;;;;;;;9.00;3.30;;;10.10;99.90;;;;;;4938884;29;20210;-75
2023/10/27 04:48:33;;;;;;;6.83;3.00;;;10.10;99.90;;;;;;4924778;29;20763;-75
2023/10/27 04:51:02;;;;;;;8.17;3.07;;;10.10;99.90;;;;;;4930526;29;20433;-74
2023/10/27 04:53:28;;;;;;;10.00;3.60;;;10.10;99.90;;;;;;4928288;29;20190;-75
2023/10/27 04:55:54;;;;;;;6.30;2.80;;;10.20;99.90;;;;;;4901311;29;20490;-75
2023/10/27 04:58:20;;;;;;;6.57;3.50;;;10.20;99.90;;;;;;4908290;29;20734;-73
2023/10/27 05:00:46;;;;;;;8.83;3.40;;;10.20;99.90;;;;;;4935693;29;20261;-74
2023/10/27 05:03:12;;;;;;;4.50;3.00;;;10.20;99.90;;;;;;4944073;29;20422;-75
2023/10/27 05:05:37;;;;;;;9.00;3.43;;;10.20;99.90;;;;;;4916713;29;20956;-74
2023/10/27 05:08:03;;;;;;;9.47;3.70;;;10.20;99.90;;;;;;4927027;29;20205;-74
2023/10/27 05:10:29;;;;;;;6.30;3.17;;;10.20;99.90;;;;;;4943855;29;20185;-75
2023/10/27 05:12:55;;;;;;;8.47;3.33;;;10.20;99.90;;;;;;4916461;29;20198;-77
2023/10/27 05:15:21;;;;;;;8.13;3.63;;;10.10;99.90;;;;;;4907743;29;20709;-75
2023/10/27 05:17:46;;;;;;;6.70;4.30;;;10.10;99.90;;;;;;4908232;29;20426;-74
2023/10/27 05:20:12;;;;;;;7.30;3.37;;;10.10;99.90;;;;;;4915524;29;20230;-75
2023/10/27 05:22:38;;;;;;;13.07;3.70;;;10.10;99.90;;;;;;4909395;29;20298;-77
2023/10/27 05:25:06;;;;;;;16.43;5.90;;;10.10;99.90;;;;;;4911067;29;20553;-76
2023/10/27 05:27:33;;;;;;;6.20;3.87;;;10.10;99.90;;;;;;4929528;29;20186;-74
2023/10/27 05:29:59;;;;;;;13.97;5.63;;;10.10;99.90;;;;;;4941851;29;20687;-75
2023/10/27 05:32:25;;;;;;;8.93;4.60;;;10.00;99.90;;;;;;4916598;29;20402;-75
2023/10/27 05:34:51;;;;;;;9.23;4.20;;;10.00;99.90;;;;;;4928099;29;20459;-75
2023/10/27 05:37:16;;;;;;;10.77;3.87;;;10.00;99.90;;;;;;4908253;29;20462;-75
2023/10/27 05:39:42;;;;;;;6.97;4.37;;;10.00;99.90;;;;;;4930169;29;20523;-76
2023/10/27 05:42:08;;;;;;;5.27;3.53;;;10.00;99.90;;;;;;4918976;29;20193;-78
2023/10/27 05:44:34;;;;;;;6.80;3.70;;;10.00;99.90;;;;;;4924454;29;20305;-75
2023/10/27 05:47:01;;;;;;;15.80;5.37;;;10.00;99.90;;;;;;4921635;29;20186;-75
2023/10/27 05:49:27;;;;;;;7.63;4.23;;;10.00;99.90;;;;;;4914365;29;20441;-78
2023/10/27 05:51:53;;;;;;;11.17;5.10;;;10.00;99.90;;;;;;4927607;29;20838;-75
2023/10/27 05:54:20;;;;;;;9.20;4.03;;;10.00;99.90;;;;;;4912736;29;20484;-75
2023/10/27 05:56:46;;;;;;;16.93;4.67;;;10.00;99.90;;;;;;4904152;29;20445;-75
2023/10/27 05:59:11;;;;;;;17.07;5.07;;;10.00;99.90;;;;;;4941197;29;20225;-74
2023/10/27 06:01:37;;;;;;;8.20;5.73;;;10.00;99.90;;;;;;4909451;29;20206;-76
2023/10/27 06:04:03;;;;;;;10.23;5.30;;;10.00;99.90;;;;;;4919238;29;20178;-76
2023/10/27 06:06:31;;;;;;;7.03;5.60;;;10.00;99.90;;;;;;4935995;29;20196;-75
2023/10/27 06:08:57;;;;;;;11.10;5.00;;;10.00;99.90;;;;;;4925374;29;20435;-76
2023/10/27 06:11:23;;;;;;;9.90;5.50;;;10.00;99.90;;;;;;4933012;29;20418;-75
2023/10/27 06:13:49;;;;;;;11.23;5.80;;;10.00;99.90;;;;;;4933406;29;20564;-75
2023/10/27 06:16:15;;;;;;;9.67;6.73;;;10.00;99.90;;;;;;4926209;29;20198;-76
2023/10/27 06:18:41;;;;;;;9.23;5.43;;;10.00;99.90;;;;;;4912332;29;20229;-75
2023/10/27 06:21:06;;;;;;;23.77;7.53;;;10.00;99.90;;;;;;4911853;29;20187;-76
2023/10/27 06:23:32;;;;;;;19.23;7.83;;;10.00;99.90;;;;;;4919472;29;20914;-76
2023/10/27 06:25:57;;;;;;;11.93;7.07;;;10.00;99.90;;;;;;4908099;29;20210;-75
2023/10/27 06:28:23;;;;;;;21.47;7.73;;;10.00;99.90;;;;;;4924083;29;20214;-76
2023/10/27 06:30:48;;;;;;;9.43;5.70;;;10.00;99.90;;;;;;4941960;29;20213;-75
2023/10/27 06:33:14;;;;;;;8.53;5.40;;;10.00;99.90;;;;;;4895851;29;20590;-78
2023/10/27 06:35:40;;;;;;;7.03;5.23;;;10.00;99.90;;;;;;4933353;29;20218;-76
2023/10/27 06:38:06;;;;;;;8.10;5.00;;;10.00;99.90;;;;;;4910209;29;20214;-74
2023/10/27 06:40:31;;;;;;;6.97;4.50;;;10.00;99.90;;;;;;4941059;29;20193;-76
2023/10/27 06:42:57;;;;;;;9.30;4.40;;;10.00;99.90;;;;;;4894821;29;20578;-77
2023/10/27 06:45:22;;;;;;;6.20;4.00;;;10.00;99.90;;;;;;4928424;29;20221;-76
2023/10/27 06:47:48;;;;;;;3.90;3.30;;;10.00;99.90;;;;;;4939946;29;20195;-75
2023/10/27 06:50:14;;;;;;;4.87;3.53;;;10.10;99.90;;;;;;4912079;29;20216;-75
2023/10/27 06:52:40;;;;;;;5.07;3.60;;;10.00;99.90;;;;;;4926450;29;20193;-75
2023/10/27 06:55:06;;;;;;;5.73;3.67;;;10.10;99.90;;;;;;4935124;29;20900;-76
2023/10/27 06:57:32;;;;;;;10.10;3.80;;;10.10;99.90;;;;;;4917464;29;20222;-78
2023/10/27 06:59:58;;;;;;;4.60;3.70;;;10.10;99.90;;;;;;4894748;29;20530;-75
2023/10/27 07:02:23;;;;;;;10.57;3.47;;;10.10;99.90;;;;;;4928449;29;20422;-76
2023/10/27 07:04:49;;;;;;;3.90;3.20;;;10.10;99.90;;;;;;4902188;29;20284;-76
2023/10/27 07:07:15;;;;;;;3.50;2.70;;;10.20;99.90;;;;;;4900966;29;20303;-76
2023/10/27 07:09:41;;;;;;;3.63;2.70;;;10.20;99.90;;;;;;4927269;29;20202;-77
2023/10/27 07:12:08;;;;;;;3.83;2.37;;;10.20;99.90;;;;;;4928239;29;20945;-76
2023/10/27 07:14:36;;;;;;;3.20;2.00;;;10.20;99.90;;;;;;4930891;29;20565;-77
2023/10/27 07:17:01;;;;;;;2.93;2.00;;;10.30;99.90;;;;;;4894149;29;20462;-76
2023/10/27 07:19:27;;;;;;;3.20;1.90;;;10.30;99.90;;;;;;4912166;29;20495;-75
2023/10/27 07:21:52;;;;;;;3.50;2.00;;;10.50;99.90;;;;;;4898918;29;20227;-74
2023/10/27 07:24:18;;;;;;;2.37;2.00;;;10.30;99.90;;;;;;4921779;29;20210;-76
2023/10/27 07:26:44;;;;;;;2.80;1.93;;;10.40;99.90;;;;;;4904395;29;20179;-74
2023/10/27 07:29:09;;;;;;;2.53;2.00;;;10.40;99.90;;;;;;4920580;29;20253;-75
2023/10/27 07:31:35;;;;;;;2.00;1.80;;;10.40;99.90;;;;;;4910830;29;20249;-77
2023/10/27 07:34:05;;;;;;;2.77;2.17;;;10.40;99.90;;;;;;4943821;29;20194;-80
2023/10/27 07:36:31;;;;;;;2.97;1.90;;;10.40;99.90;;;;;;4921567;29;20199;-76
2023/10/27 07:38:58;;;;;;;2.07;1.40;;;10.40;99.90;;;;;;4912643;29;20498;-73
2023/10/27 07:41:24;;;;;;;2.30;2.00;;;10.50;99.90;;;;;;4924191;29;20490;-78
2023/10/27 07:43:49;;;;;;;1.83;1.33;;;10.50;99.90;;;;;;4934865;29;20422;-76
2023/10/27 07:46:16;;;;;;;3.07;1.43;;;10.40;99.90;;;;;;4914322;29;20542;-77
2023/10/27 07:48:41;;;;;;;1.60;1.27;;;10.50;99.90;;;;;;4946867;29;20201;-77
2023/10/27 07:51:07;;;;;;;2.37;1.30;;;10.50;99.90;;;;;;4900313;29;20489;-78
2023/10/27 07:53:33;;;;;;;2.27;1.40;;;10.60;99.90;;;;;;4891900;29;20247;-78
2023/10/27 07:55:59;;;;;;;3.60;1.80;;;10.60;99.90;;;;;;4921342;29;20497;-75
2023/10/27 07:58:25;;;;;;;2.60;1.90;;;10.60;99.90;;;;;;4926571;29;20621;-75
2023/10/27 08:00:51;;;;;;;2.53;1.50;;;10.60;99.90;;;;;;4911241;29;20187;-79
2023/10/27 08:03:18;;;;;;;2.20;1.77;;;10.60;99.90;;;;;;4907406;29;20461;-76
2023/10/27 08:05:43;;;;;;;2.30;1.70;;;10.70;99.90;;;;;;4943920;29;20209;-78
2023/10/27 08:08:10;;;;;;;2.60;2.00;;;10.70;99.90;;;;;;4900421;29;20422;-78
2023/10/27 08:10:39;;;;;;;2.13;1.43;;;10.70;99.90;;;;;;4950415;29;20186;-77
2023/10/27 08:13:05;;;;;;;2.13;1.60;;;10.70;99.90;;;;;;4924759;29;20467;-75
2023/10/27 08:15:34;;;;;;;1.60;1.40;;;10.70;99.90;;;;;;4915091;29;20450;-76
2023/10/27 08:18:01;;;;;;;2.60;1.30;;;10.80;99.90;;;;;;4927367;29;20258;-75
2023/10/27 08:20:26;;;;;;;1.63;1.30;;;10.80;99.90;;;;;;4934993;29;20441;-78
2023/10/27 08:22:55;;;;;;;1.57;1.20;;;10.80;99.90;;;;;;4941785;29;20430;-76
2023/10/27 08:25:22;;;;;;;1.17;0.80;;;10.80;99.90;;;;;;4928150;29;20572;-76
2023/10/27 08:27:49;;;;;;;1.37;1.10;;;10.90;99.90;;;;;;4940233;29;20447;-76
2023/10/27 08:30:14;;;;;;;1.60;1.10;;;10.90;99.90;;;;;;4912871;29;20422;-77
2023/10/27 08:32:40;;;;;;;1.47;1.17;;;11.00;99.90;;;;;;4942585;29;20418;-75
2023/10/27 08:35:06;;;;;;;1.17;0.93;;;11.00;99.90;;;;;;4926796;29;20674;-77
2023/10/27 08:37:32;;;;;;;2.20;1.23;;;11.00;99.90;;;;;;4946251;29;20191;-76
2023/10/27 08:39:58;;;;;;;2.53;1.33;;;10.90;99.90;;;;;;4952721;29;20461;-78
2023/10/27 08:42:28;;;;;;;1.10;0.80;;;11.00;99.90;;;;;;4901803;29;20430;-75
2023/10/27 08:44:55;;;;;;;1.20;0.83;;;10.90;99.90;;;;;;4915569;29;20451;-75
2023/10/27 08:47:21;;;;;;;1.60;1.00;;;10.90;99.90;;;;;;4909158;29;20442;-79
2023/10/27 08:49:47;;;;;;;1.20;1.00;;;10.90;99.90;;;;;;4915777;29;20438;-77
2023/10/27 08:52:14;;;;;;;1.80;1.03;;;11.00;99.90;;;;;;4933540;29;20419;-76
2023/10/27 08:54:41;;;;;;;1.30;1.00;;;11.00;99.90;;;;;;4930564;29;20576;-76
2023/10/27 08:57:08;;;;;;;1.53;1.03;;;11.10;99.90;;;;;;4931009;29;20465;-76
2023/10/27 08:59:37;;;;;;;1.40;1.10;;;11.10;99.90;;;;;;4929952;29;20514;-78
2023/10/27 09:02:04;;;;;;;1.53;1.10;;;11.10;99.90;;;;;;4917849;29;20721;-78
2023/10/27 09:04:31;;;;;;;2.40;2.13;;;11.10;99.90;;;;;;4928781;29;20462;-77
2023/10/27 09:06:59;;;;;;;1.77;1.03;;;11.20;99.90;;;;;;4925563;29;20426;-75
2023/10/27 09:09:25;;;;;;;1.10;0.90;;;11.20;99.90;;;;;;4937112;29;20489;-75
2023/10/27 09:11:51;;;;;;;1.30;1.20;;;11.20;99.90;;;;;;4941518;29;20463;-77
2023/10/27 09:14:22;;;;;;;1.17;1.07;;;11.20;99.90;;;;;;4917662;29;20261;-77
2023/10/27 09:16:48;;;;;;;1.10;0.90;;;11.20;99.90;;;;;;4911863;29;20513;-76
2023/10/27 09:19:22;;;;;;;1.10;0.80;;;11.20;99.90;;;;;;4939119;29;20482;-76
2023/10/27 09:21:47;;;;;;;1.50;1.00;;;11.10;99.90;;;;;;4936487;29;20427;-78
2023/10/27 09:24:27;;;;;;;1.20;0.90;;;11.10;99.90;;;;;;4915664;29;20423;-76
2023/10/27 09:26:55;;;;;;;1.10;0.80;;;11.10;99.90;;;;;;4904089;29;20494;-78
2023/10/27 09:29:21;;;;;;;1.40;0.93;;;11.10;99.90;;;;;;4931323;29;20434;-77
2023/10/27 09:31:47;;;;;;;1.30;0.90;;;11.10;99.90;;;;;;4912659;29;20431;-79
2023/10/27 09:34:17;;;;;;;2.07;1.30;;;11.10;99.90;;;;;;4921747;29;20445;-78
2023/10/27 09:36:45;;;;;;;2.23;1.20;;;11.20;99.90;;;;;;4932907;29;20437;-78
2023/10/27 09:39:16;;;;;;;1.30;1.20;;;11.20;99.90;;;;;;4915077;29;20479;-76
2023/10/27 09:41:48;;;;;;;1.17;0.90;;;11.30;99.90;;;;;;4929940;29;20422;-76
2023/10/27 09:44:16;;;;;;;1.83;1.30;;;11.30;99.90;;;;;;4918141;29;20442;-77
2023/10/27 09:46:53;;;;;;;1.40;1.10;;;11.30;99.90;;;;;;4919902;29;20409;-79
2023/10/27 09:49:29;;;;;;;1.27;0.90;;;11.40;99.90;;;;;;4944075;29;20433;-76
2023/10/27 09:51:59;;;;;;;1.03;0.90;;;11.40;99.90;;;;;;4926006;29;20438;-79
2023/10/27 09:54:30;;;;;;;0.93;0.83;;;11.40;99.90;;;;;;4937413;29;20442;-77
2023/10/27 09:57:04;;;;;;;1.20;1.03;;;11.50;99.90;;;;;;4939617;29;20506;-79
2023/10/27 09:59:30;;;;;;;1.00;0.80;;;11.60;99.90;;;;;;4949781;29;20544;-76
2023/10/27 10:02:05;;;;;;;1.00;0.80;;;11.80;99.90;;;;;;4903353;29;20435;-78
2023/10/27 10:04:52;;;;;;;1.20;0.97;;;11.90;99.90;;;;;;4935298;29;20964;-76
2023/10/27 10:07:44;;;;;;;1.37;0.97;;;11.90;99.90;;;;;;4936105;29;20450;-79
2023/10/27 10:10:34;;;;;;;1.00;0.77;;;12.00;99.90;;;;;;4910438;29;20434;-71
2023/10/27 10:13:14;;;;;;;1.00;0.80;;;12.10;99.90;;;;;;4929173;29;20431;-72
2023/10/27 10:15:42;;;;;;;1.07;0.80;;;12.10;99.90;;;;;;4922941;29;20750;-72
2023/10/27 10:18:28;;;;;;;1.00;0.80;;;12.10;99.90;;;;;;4913659;29;20509;-72
2023/10/27 10:20:59;;;;;;;1.03;0.80;;;12.20;99.90;;;;;;4918183;29;20465;-72
2023/10/27 10:23:55;;;;;;;1.20;0.80;;;12.20;99.90;;;;;;4908664;29;20431;-72
2023/10/27 10:26:20;;;;;;;1.10;0.80;;;12.40;99.90;;;;;;4913272;29;20457;-72
2023/10/27 10:28:46;;;;;;;1.20;0.93;;;12.50;99.90;;;;;;4934686;29;20500;-70
2023/10/27 10:31:13;;;;;;;1.30;1.00;;;12.50;99.90;;;;;;4941976;29;20207;-72
2023/10/27 10:33:45;;;;;;;1.07;0.90;;;12.50;99.90;;;;;;4936241;29;20460;-72
2023/10/27 10:36:22;;;;;;;1.60;1.10;;;12.60;99.90;;;;;;4935409;29;20447;-73
2023/10/27 10:38:51;;;;;;;1.23;1.03;;;12.60;99.90;;;;;;4930209;29;20996;-72
2023/10/27 10:41:18;;;;;;;2.40;1.27;;;12.60;99.90;;;;;;4926123;29;20425;-71
2023/10/27 10:43:44;;;;;;;1.23;1.00;;;12.70;99.90;;;;;;4940758;29;20571;-69
2023/10/27 10:46:11;;;;;;;1.43;1.10;;;12.70;99.90;;;;;;4923705;29;20436;-70
2023/10/27 10:48:45;;;;;;;2.57;1.40;;;12.70;99.90;;;;;;4915284;29;20275;-70
2023/10/27 10:51:16;;;;;;;1.47;1.27;;;12.70;99.90;;;;;;4943474;29;20428;-69
2023/10/27 10:53:52;;;;;;;1.13;1.00;;;12.70;99.90;;;;;;4916238;29;20443;-70
2023/10/27 10:56:18;;;;;;;1.70;1.30;;;12.80;99.90;;;;;;4923625;29;20464;-70
2023/10/27 10:58:45;;;;;;;1.53;1.40;;;12.80;99.90;;;;;;4907424;29;20462;-82
2023/10/27 11:01:19;;;;;;;2.30;1.73;;;12.90;99.90;;;;;;4922146;29;20417;-76
2023/10/27 11:03:50;;;;;;;1.90;1.60;;;13.00;99.90;;;;;;4912286;29;20438;-77
2023/10/27 11:06:19;;;;;;;1.20;1.10;;;13.10;99.90;;;;;;4914363;29;20460;-79
2023/10/27 11:08:46;;;;;;;1.43;1.33;;;13.20;99.90;;;;;;4923525;29;20505;-77
2023/10/27 11:11:16;;;;;;;1.67;1.43;;;13.20;99.90;;;;;;4914023;29;20461;-77
2023/10/27 11:13:57;;;;;;;1.80;1.57;;;13.20;99.90;;;;;;4938478;29;20412;-77
2023/10/27 11:16:28;;;;;;;1.97;1.57;;;13.20;99.90;;;;;;4907401;29;20423;-78
2023/10/27 11:19:05;;;;;;;2.03;1.60;;;13.30;99.90;;;;;;4921251;29;20481;-78
2023/10/27 11:21:33;;;;;;;2.10;1.20;;;13.30;99.90;;;;;;4929797;29;20418;-79
2023/10/27 11:24:07;;;;;;;1.60;1.40;;;13.30;99.90;;;;;;4907128;29;20703;-79
2023/10/27 11:26:41;;;;;;;2.60;1.67;;;13.20;99.90;;;;;;4919374;29;20514;-77
2023/10/27 11:29:07;;;;;;;2.10;1.90;;;13.10;99.90;;;;;;4916803;29;20433;-77
2023/10/27 11:31:39;;;;;;;1.93;1.83;;;13.20;99.90;;;;;;4951941;29;20481;-78
2023/10/27 11:34:09;;;;;;;2.70;2.50;;;13.20;99.90;;;;;;4915523;29;20477;-76
2023/10/27 11:36:43;;;;;;;3.30;2.77;;;13.30;99.90;;;;;;4918524;29;20495;-80
2023/10/27 11:39:16;;;;;;;4.83;2.70;;;13.20;99.90;;;;;;4938035;29;20461;-78
2023/10/27 11:41:42;;;;;;;3.03;2.30;;;13.20;99.90;;;;;;4933553;29;20465;-79
2023/10/27 11:44:08;;;;;;;3.13;2.60;;;13.20;99.90;;;;;;4919325;29;20532;-78
2023/10/27 11:46:35;;;;;;;3.43;2.30;;;13.20;99.90;;;;;;4922599;29;20568;-80
2023/10/27 11:49:01;;;;;;;2.87;2.37;;;13.10;99.90;;;;;;4906270;29;20202;-78
2023/10/27 11:51:27;;;;;;;2.97;2.60;;;12.90;99.90;;;;;;4920740;29;20473;-77
2023/10/27 11:53:53;;;;;;;3.17;2.40;;;12.70;99.90;;;;;;4946085;29;20201;-78
2023/10/27 11:56:19;;;;;;;5.20;3.10;;;12.60;99.90;;;;;;4925681;29;20202;-79
2023/10/27 11:58:44;;;;;;;4.43;2.90;;;12.60;99.90;;;;;;4892817;29;20600;-80
2023/10/27 12:01:10;;;;;;;4.70;2.83;;;12.50;99.90;;;;;;4914318;29;20530;-78
2023/10/27 12:03:36;;;;;;;3.43;3.00;;;12.50;99.90;;;;;;4926349;29;20181;-80
2023/10/27 12:06:02;;;;;;;3.17;2.63;;;12.60;99.90;;;;;;4938397;29;20331;-79
2023/10/27 12:08:28;;;;;;;3.17;2.83;;;12.50;99.90;;;;;;4937631;29;20434;-79
2023/10/27 12:10:56;;;;;;;4.30;2.87;;;12.40;99.90;;;;;;4927129;29;20757;-80
2023/10/27 12:13:29;;;;;;;4.87;3.40;;;12.30;99.90;;;;;;4923777;29;20439;-77
2023/10/27 12:15:55;;;;;;;6.47;4.33;;;12.30;99.90;;;;;;4942033;28;20431;-79
2023/10/27 12:18:21;;;;;;;4.90;4.30;;;12.40;99.90;;;;;;4922873;29;20477;-78
2023/10/27 12:20:49;;;;;;;4.33;3.00;;;12.30;99.90;;;;;;4915048;29;20198;-77
2023/10/27 12:23:15;;;;;;;4.80;3.60;;;12.40;99.90;;;;;;4920426;29;20437;-76
2023/10/27 12:25:42;;;;;;;4.33;3.70;;;12.50;99.90;;;;;;4936668;29;20485;-80
2023/10/27 12:28:08;;;;;;;5.50;3.57;;;12.50;99.90;;;;;;4928902;29;20199;-79
2023/10/27 12:30:36;;;;;;;4.97;3.73;;;12.50;99.90;;;;;;4929372;29;20427;-77
2023/10/27 12:33:03;;;;;;;3.03;2.40;;;12.50;99.90;;;;;;4920073;29;20438;-78
2023/10/27 12:35:31;;;;;;;4.10;2.60;;;12.50;99.90;;;;;;4903628;29;20465;-80
2023/10/27 12:37:57;;;;;;;4.07;3.00;;;12.50;99.90;;;;;;4937057;29;20442;-80
2023/10/27 12:40:24;;;;;;;3.33;2.30;;;12.50;99.90;;;;;;4935963;29;20439;-78
2023/10/27 12:42:50;;;;;;;6.03;3.03;;;12.40;99.90;;;;;;4925625;29;20329;-79
2023/10/27 12:45:17;;;;;;;4.50;3.23;;;12.30;99.90;;;;;;4920668;29;20521;-79